Terminal Aerodrome Forecast
Issued by NWS Goodland, KS

Home | Current Version | Previous Version | Text Only | Print | Product List | Glossary On
Versions: 1 2 3 4 5 6 7 8 9 10 11
489
FTUS43 KGLD 091120
TAFGLD
TAF
KGLD 091120Z 0912/1012 31012G18KT P6SM SKC WS020/34040KT
     FM091400 31011KT P6SM SKC WS020/34035KT
     FM091500 31012KT P6SM SKC
     FM091900 33016G25KT P6SM SCT050 SCT100
     FM092300 31010KT P6SM FEW280
     FM100200 28009KT P6SM FEW280=

USA.gov is the U.S. government's official web portal to all federal, state and local government web resources and services.